Time;durP1;ratioP1;P1;durP2;ratioP2;P2;SDS_P1;SDS_P2;PMS_P1;PMS_P2;Temp;Humidity;BMP_temperature;BMP_pressure;BME280_temperature;BME280_humidity;BME280_pressure;Samples;Min_cycle;Max_cycle;Signal;HPM_P1;HPM_P2
2024/03/10 00:00:53;;;;;;;9.73;6.37;;;6.10;99.90;;;;;;5092000;28;20198;-61
2024/03/10 00:03:20;;;;;;;12.07;7.30;;;6.10;99.90;;;;;;5110079;28;20281;-62
2024/03/10 00:05:47;;;;;;;8.23;5.60;;;6.10;99.90;;;;;;5109800;28;20212;-63
2024/03/10 00:08:14;;;;;;;7.30;5.43;;;6.10;99.90;;;;;;5110894;28;20625;-63
2024/03/10 00:10:41;;;;;;;10.97;6.80;;;6.10;99.90;;;;;;5104635;28;20256;-63
2024/03/10 00:13:09;;;;;;;14.30;8.37;;;6.10;99.90;;;;;;5110106;28;20244;-63
2024/03/10 00:15:37;;;;;;;13.10;7.37;;;6.10;99.90;;;;;;5109927;28;20498;-63
2024/03/10 00:18:05;;;;;;;19.23;9.90;;;6.10;99.90;;;;;;5110176;28;20203;-64
2024/03/10 00:20:33;;;;;;;13.07;8.30;;;6.10;99.90;;;;;;5109533;28;20280;-63
2024/03/10 00:23:00;;;;;;;11.93;7.83;;;6.10;99.90;;;;;;5104782;28;20243;-62
2024/03/10 00:25:27;;;;;;;15.10;8.93;;;6.00;99.90;;;;;;5109941;28;20253;-63
2024/03/10 00:27:54;;;;;;;15.17;8.37;;;6.00;99.90;;;;;;5107919;28;20206;-62
2024/03/10 00:30:23;;;;;;;12.53;7.80;;;6.00;99.90;;;;;;5113563;28;20206;-63
2024/03/10 00:32:50;;;;;;;13.10;8.03;;;6.00;99.90;;;;;;5113851;28;20710;-63
2024/03/10 00:35:18;;;;;;;11.37;6.80;;;6.00;99.90;;;;;;5106101;28;20193;-64
2024/03/10 00:37:45;;;;;;;9.90;6.47;;;6.00;99.90;;;;;;5108228;27;20630;-63
2024/03/10 00:40:14;;;;;;;8.17;5.53;;;5.90;99.90;;;;;;5095586;28;20188;-62
2024/03/10 00:42:41;;;;;;;8.53;5.97;;;5.90;99.90;;;;;;5114050;28;20202;-63
2024/03/10 00:45:09;;;;;;;8.97;5.77;;;5.90;99.90;;;;;;5113254;28;20677;-61
2024/03/10 00:47:38;;;;;;;6.83;5.37;;;5.90;99.90;;;;;;5108505;28;20206;-62
2024/03/10 00:50:08;;;;;;;8.87;5.70;;;5.80;99.90;;;;;;5113894;28;20673;-62
2024/03/10 00:52:35;;;;;;;10.80;6.30;;;5.80;99.90;;;;;;5092592;28;20216;-62
2024/03/10 00:55:03;;;;;;;9.33;5.93;;;5.80;99.90;;;;;;5114256;28;20212;-62
2024/03/10 00:57:30;;;;;;;9.50;5.90;;;5.80;99.90;;;;;;5113804;28;20542;-62
2024/03/10 00:59:57;;;;;;;9.43;5.77;;;5.70;99.90;;;;;;5114126;28;20626;-63
2024/03/10 01:02:25;;;;;;;11.80;7.00;;;5.70;99.90;;;;;;5103003;28;20224;-63
2024/03/10 01:04:55;;;;;;;10.77;6.70;;;5.70;99.90;;;;;;5113797;28;20197;-63
2024/03/10 01:07:22;;;;;;;8.63;5.90;;;5.70;99.90;;;;;;5113246;28;20592;-63
2024/03/10 01:09:49;;;;;;;7.87;4.93;;;5.80;99.90;;;;;;5107064;28;20649;-63
2024/03/10 01:12:16;;;;;;;5.77;4.63;;;5.80;99.90;;;;;;5113442;28;20213;-63
2024/03/10 01:14:43;;;;;;;7.53;5.43;;;5.80;99.90;;;;;;5113579;28;20262;-62
2024/03/10 01:17:10;;;;;;;7.50;5.40;;;5.70;99.90;;;;;;5110262;28;20279;-61
2024/03/10 01:19:37;;;;;;;8.23;5.00;;;5.70;99.90;;;;;;5110692;28;20237;-62
2024/03/10 01:22:06;;;;;;;7.87;5.63;;;5.70;99.90;;;;;;5112651;28;20611;-62
2024/03/10 01:24:33;;;;;;;8.37;5.37;;;5.70;99.90;;;;;;5113263;28;20227;-63
2024/03/10 01:27:02;;;;;;;5.40;4.40;;;5.70;99.90;;;;;;5094924;28;20618;-62
2024/03/10 01:29:30;;;;;;;7.40;4.50;;;5.70;99.90;;;;;;5112781;28;20675;-63
2024/03/10 01:31:57;;;;;;;7.97;5.30;;;5.70;99.90;;;;;;5094566;28;20209;-62
2024/03/10 01:34:24;;;;;;;7.93;5.20;;;5.60;99.90;;;;;;5126483;27;20612;-63
2024/03/10 01:36:52;;;;;;;8.23;5.47;;;5.60;99.90;;;;;;5094725;28;20198;-62
2024/03/10 01:39:20;;;;;;;6.00;4.50;;;5.50;99.90;;;;;;5094210;28;20300;-62
2024/03/10 01:41:47;;;;;;;7.60;5.13;;;5.50;99.90;;;;;;5112738;28;20212;-63
2024/03/10 01:44:14;;;;;;;8.30;5.03;;;5.50;99.90;;;;;;5112569;28;20276;-62
2024/03/10 01:46:42;;;;;;;7.23;4.80;;;5.50;99.90;;;;;;5112743;28;20197;-62
2024/03/10 01:49:09;;;;;;;10.43;6.40;;;5.50;99.90;;;;;;5110588;28;20221;-63
2024/03/10 01:51:38;;;;;;;9.90;6.00;;;5.50;99.90;;;;;;5111874;28;20315;-63
2024/03/10 01:54:15;;;;;;;6.07;4.80;;;5.50;99.90;;;;;;5102946;28;20198;-63
2024/03/10 01:56:43;;;;;;;7.13;4.77;;;5.50;99.90;;;;;;5113523;28;20194;-64
2024/03/10 01:59:12;;;;;;;8.83;5.67;;;5.50;99.90;;;;;;5112298;28;20197;-64
2024/03/10 02:01:39;;;;;;;7.60;5.40;;;5.50;99.90;;;;;;5112890;28;20302;-64
2024/03/10 02:04:09;;;;;;;6.83;4.67;;;5.50;99.90;;;;;;5117984;27;20558;-63
2024/03/10 02:06:37;;;;;;;6.73;5.10;;;5.50;99.90;;;;;;5111737;28;20197;-63
2024/03/10 02:09:04;;;;;;;6.67;5.07;;;5.50;99.90;;;;;;5112524;28;20202;-63
2024/03/10 02:11:31;;;;;;;4.93;3.90;;;5.50;99.90;;;;;;5112628;28;20193;-64
2024/03/10 02:13:59;;;;;;;7.97;4.93;;;5.50;99.90;;;;;;5089860;28;20209;-63
2024/03/10 02:16:26;;;;;;;9.53;5.67;;;5.50;99.90;;;;;;5112315;28;20254;-62
2024/03/10 02:18:53;;;;;;;8.47;6.00;;;5.50;99.90;;;;;;5111906;28;20217;-63
2024/03/10 02:21:21;;;;;;;6.73;4.87;;;5.50;99.90;;;;;;5111335;28;20698;-63
2024/03/10 02:23:58;;;;;;;6.87;4.87;;;5.60;99.90;;;;;;5112375;28;20202;-64
2024/03/10 02:26:32;;;;;;;9.27;5.80;;;5.60;99.90;;;;;;5109676;28;20722;-63
2024/03/10 02:29:14;;;;;;;8.53;5.63;;;5.60;99.90;;;;;;5111605;28;20250;-63
2024/03/10 02:48:13;;;;;;;8.10;5.60;;;5.30;99.90;;;;;;5100731;28;20224;-62
2024/03/10 02:50:40;;;;;;;7.60;4.87;;;5.30;99.90;;;;;;5100751;28;20546;-63
2024/03/10 02:53:09;;;;;;;8.13;5.47;;;5.40;99.90;;;;;;5110693;28;20209;-63
2024/03/10 02:55:37;;;;;;;10.03;4.73;;;5.30;99.90;;;;;;5111342;28;20821;-62
2024/03/10 02:58:07;;;;;;;7.27;5.13;;;5.30;99.90;;;;;;5111513;28;20251;-62
2024/03/10 03:00:35;;;;;;;6.83;4.77;;;5.30;99.90;;;;;;5102357;28;20284;-62
2024/03/10 03:03:04;;;;;;;6.60;5.00;;;5.30;99.90;;;;;;5111507;28;20197;-64
2024/03/10 03:05:31;;;;;;;7.10;5.40;;;5.30;99.90;;;;;;5102536;28;20669;-63
2024/03/10 03:07:59;;;;;;;6.67;4.80;;;5.40;99.90;;;;;;5110378;28;20205;-63
2024/03/10 03:10:26;;;;;;;7.17;4.90;;;5.30;99.90;;;;;;5107870;28;20259;-62
2024/03/10 03:12:54;;;;;;;8.20;5.33;;;5.30;99.90;;;;;;5104885;28;20209;-63
2024/03/10 03:15:23;;;;;;;9.07;5.10;;;5.30;99.90;;;;;;5110867;28;20226;-62
2024/03/10 03:17:50;;;;;;;7.10;4.93;;;5.30;99.90;;;;;;5110422;28;20188;-62
2024/03/10 03:20:20;;;;;;;6.13;4.50;;;5.30;99.90;;;;;;5106198;28;20204;-63
2024/03/10 03:22:49;;;;;;;9.57;5.57;;;5.30;99.90;;;;;;5110874;28;20191;-63
2024/03/10 03:25:17;;;;;;;6.57;4.60;;;5.30;99.90;;;;;;5110971;28;20216;-62
2024/03/10 03:27:47;;;;;;;6.37;4.40;;;5.40;99.90;;;;;;5096844;28;20197;-62
2024/03/10 03:30:15;;;;;;;7.50;4.80;;;5.40;99.90;;;;;;5098365;28;20617;-64
2024/03/10 03:32:44;;;;;;;7.60;5.27;;;5.40;99.90;;;;;;5111010;28;20211;-62
2024/03/10 03:35:12;;;;;;;6.43;4.37;;;5.40;99.90;;;;;;5109620;28;20196;-63
2024/03/10 03:37:39;;;;;;;7.53;5.07;;;5.40;99.90;;;;;;5111280;28;20252;-63
2024/03/10 03:40:08;;;;;;;4.73;3.93;;;5.40;99.90;;;;;;5111052;28;20547;-63
2024/03/10 03:42:36;;;;;;;4.73;3.93;;;5.40;99.90;;;;;;5110697;28;20215;-63
2024/03/10 03:45:04;;;;;;;4.70;3.67;;;5.30;99.90;;;;;;5111230;28;20271;-63
2024/03/10 03:47:31;;;;;;;5.60;4.00;;;5.30;99.90;;;;;;5110238;28;20286;-63
2024/03/10 03:49:59;;;;;;;5.57;3.97;;;5.30;99.90;;;;;;5110507;28;20204;-62
2024/03/10 03:52:26;;;;;;;8.67;5.10;;;5.20;99.90;;;;;;5109881;28;20260;-62
2024/03/10 03:54:53;;;;;;;7.37;5.33;;;5.20;99.90;;;;;;5110714;28;20663;-63
2024/03/10 03:57:22;;;;;;;7.97;5.73;;;5.20;99.90;;;;;;5110556;28;20196;-63
2024/03/10 03:59:50;;;;;;;7.83;5.20;;;5.30;99.90;;;;;;5099826;28;20188;-63
2024/03/10 04:02:23;;;;;;;7.10;4.63;;;5.30;99.90;;;;;;5105647;28;20536;-63
2024/03/10 04:04:50;;;;;;;6.17;4.50;;;5.20;99.90;;;;;;5110301;28;20615;-63
2024/03/10 04:07:19;;;;;;;7.60;5.20;;;5.30;99.90;;;;;;5106286;28;20279;-63
2024/03/10 04:09:46;;;;;;;5.67;4.23;;;5.30;99.90;;;;;;5110196;28;20224;-63
2024/03/10 04:12:13;;;;;;;7.73;5.07;;;5.30;99.90;;;;;;5110002;28;20656;-62
2024/03/10 04:14:40;;;;;;;13.77;7.77;;;5.20;99.90;;;;;;5110601;28;20539;-62
2024/03/10 04:17:07;;;;;;;10.43;6.70;;;5.30;99.90;;;;;;5109860;28;20196;-63
2024/03/10 04:19:35;;;;;;;9.83;5.90;;;5.30;99.90;;;;;;5104708;28;20219;-63
2024/03/10 04:22:02;;;;;;;8.90;5.97;;;5.30;99.90;;;;;;5107654;28;20196;-63
2024/03/10 04:24:31;;;;;;;8.13;5.40;;;5.40;99.90;;;;;;5078312;28;20196;-62
2024/03/10 04:26:58;;;;;;;9.73;6.00;;;5.30;99.90;;;;;;5110463;28;20670;-63
2024/03/10 04:29:25;;;;;;;6.53;5.03;;;5.30;99.90;;;;;;5080739;28;20216;-63
2024/03/10 04:31:52;;;;;;;5.97;4.90;;;5.30;99.90;;;;;;5110123;28;20631;-62
2024/03/10 04:34:19;;;;;;;11.13;7.10;;;5.30;99.90;;;;;;5104724;28;20214;-62
2024/03/10 04:36:46;;;;;;;17.50;9.30;;;5.30;99.90;;;;;;5104742;28;20201;-62
2024/03/10 04:39:13;;;;;;;12.07;7.67;;;5.30;99.90;;;;;;5109241;28;20256;-62
2024/03/10 04:41:42;;;;;;;11.00;6.23;;;5.30;99.90;;;;;;5109865;28;20344;-62
2024/03/10 04:44:09;;;;;;;8.90;5.90;;;5.30;99.90;;;;;;5089736;28;20199;-61
2024/03/10 04:46:39;;;;;;;14.33;8.33;;;5.20;99.90;;;;;;5091588;28;20559;-62
2024/03/10 04:49:06;;;;;;;17.03;8.47;;;5.20;99.90;;;;;;5109994;28;20669;-63
2024/03/10 04:51:33;;;;;;;14.60;8.67;;;5.20;99.90;;;;;;5108844;28;20705;-63
2024/03/10 04:54:00;;;;;;;10.17;6.77;;;5.20;99.90;;;;;;5105236;28;20299;-63
2024/03/10 04:56:27;;;;;;;10.80;6.60;;;5.30;99.90;;;;;;5110127;28;20210;-63
2024/03/10 04:58:55;;;;;;;6.50;5.03;;;5.20;99.90;;;;;;5109474;28;20218;-63
2024/03/10 05:01:22;;;;;;;12.00;6.57;;;5.20;99.90;;;;;;5109259;28;20230;-63
2024/03/10 05:03:50;;;;;;;9.90;5.87;;;5.20;99.90;;;;;;5108999;28;20192;-63
2024/03/10 05:06:17;;;;;;;10.33;5.90;;;5.20;99.90;;;;;;5105132;28;20197;-62
2024/03/10 05:08:44;;;;;;;8.87;5.50;;;5.10;99.90;;;;;;5109410;28;20300;-62
2024/03/10 05:11:11;;;;;;;9.50;6.03;;;5.20;99.90;;;;;;5109546;28;20280;-64
2024/03/10 05:13:38;;;;;;;9.40;5.50;;;5.20;99.90;;;;;;5109474;28;20213;-63
2024/03/10 05:16:07;;;;;;;7.87;5.53;;;5.20;99.90;;;;;;5090007;28;20630;-63
2024/03/10 05:18:34;;;;;;;7.40;5.20;;;5.20;99.90;;;;;;5110998;28;20195;-63
2024/03/10 05:21:01;;;;;;;9.17;5.40;;;5.10;99.90;;;;;;5111843;28;20202;-64
2024/03/10 05:23:28;;;;;;;9.00;6.03;;;5.00;99.90;;;;;;5113968;28;20272;-63
2024/03/10 05:25:55;;;;;;;9.23;5.90;;;5.00;99.90;;;;;;5113201;28;20245;-63
2024/03/10 05:28:22;;;;;;;7.93;4.83;;;4.90;99.90;;;;;;5113376;28;20227;-63
2024/03/10 05:30:50;;;;;;;7.97;5.20;;;4.90;99.90;;;;;;5111095;28;20192;-64
2024/03/10 05:33:18;;;;;;;6.13;4.53;;;5.00;99.90;;;;;;5105580;28;20218;-62
2024/03/10 05:35:45;;;;;;;6.43;4.43;;;5.00;99.90;;;;;;5111197;28;20183;-63
2024/03/10 05:38:12;;;;;;;7.47;4.93;;;5.00;99.90;;;;;;5113546;28;20264;-63
2024/03/10 05:40:39;;;;;;;7.07;5.00;;;5.00;99.90;;;;;;5092168;28;20223;-62
2024/03/10 05:43:06;;;;;;;7.90;5.03;;;5.00;99.90;;;;;;5112766;28;20662;-62
2024/03/10 05:45:33;;;;;;;9.33;4.93;;;5.00;99.90;;;;;;5112497;28;20191;-62
2024/03/10 05:48:00;;;;;;;6.37;4.77;;;5.00;99.90;;;;;;5111529;28;20212;-63
2024/03/10 05:50:29;;;;;;;8.97;5.70;;;5.00;99.90;;;;;;5111690;28;20231;-62
2024/03/10 05:52:56;;;;;;;8.60;4.93;;;5.00;99.90;;;;;;5112138;28;20184;-62
2024/03/10 05:55:23;;;;;;;8.23;5.20;;;5.10;99.90;;;;;;5112648;28;20246;-63
2024/03/10 05:57:50;;;;;;;9.03;5.53;;;5.10;99.90;;;;;;5111433;28;20264;-60
2024/03/10 06:00:18;;;;;;;8.23;4.67;;;5.20;99.90;;;;;;5103686;28;20220;-62
2024/03/10 06:02:45;;;;;;;7.77;4.83;;;5.20;99.90;;;;;;5112146;28;20219;-62
2024/03/10 06:05:13;;;;;;;9.53;6.07;;;5.20;99.90;;;;;;5111542;28;20285;-62
2024/03/10 06:07:43;;;;;;;12.40;6.23;;;5.10;99.90;;;;;;5113023;28;20236;-62
2024/03/10 06:10:11;;;;;;;10.20;5.57;;;5.10;99.90;;;;;;5113149;28;20231;-61
2024/03/10 06:12:39;;;;;;;6.50;4.60;;;5.20;99.90;;;;;;5091428;28;20243;-62
2024/03/10 06:15:10;;;;;;;12.20;6.87;;;5.20;99.90;;;;;;5111117;28;20820;-60
2024/03/10 06:17:40;;;;;;;16.93;9.13;;;5.30;99.90;;;;;;5100457;28;20256;-62
2024/03/10 06:25:39;;;;;;;13.13;6.73;;;5.50;99.60;;;;;;5112429;28;20192;-62
2024/03/10 06:28:06;;;;;;;10.53;6.50;;;5.50;99.60;;;;;;5111633;28;20577;-62
2024/03/10 06:30:35;;;;;;;12.60;7.83;;;5.50;99.60;;;;;;5101424;28;20270;-63
2024/03/10 06:33:02;;;;;;;13.07;7.60;;;5.50;99.70;;;;;;5110363;28;20201;-62
2024/03/10 06:35:29;;;;;;;10.33;6.90;;;5.40;99.70;;;;;;5106331;28;20216;-64
2024/03/10 06:37:57;;;;;;;16.33;9.03;;;5.50;99.70;;;;;;5111976;28;20279;-63
2024/03/10 06:40:25;;;;;;;13.83;6.90;;;5.50;99.70;;;;;;5111807;28;20181;-63
2024/03/10 06:42:52;;;;;;;11.57;7.40;;;5.60;99.60;;;;;;5111840;28;20203;-62
2024/03/10 06:45:19;;;;;;;11.63;6.80;;;5.60;99.60;;;;;;5109499;28;20193;-64
2024/03/10 06:47:46;;;;;;;10.67;6.70;;;5.50;99.60;;;;;;5112335;28;20536;-63
2024/03/10 06:50:13;;;;;;;19.17;11.00;;;5.60;99.70;;;;;;5108562;28;20589;-63
2024/03/10 06:52:43;;;;;;;20.83;11.73;;;5.70;99.60;;;;;;5111067;28;20207;-64
2024/03/10 06:55:12;;;;;;;19.10;11.43;;;5.70;99.30;;;;;;5111530;28;20208;-64
2024/03/10 06:57:39;;;;;;;15.67;9.17;;;5.80;99.30;;;;;;5111615;28;20184;-62
2024/03/10 07:00:12;;;;;;;14.23;8.63;;;5.80;99.10;;;;;;5108252;28;20285;-62
2024/03/10 07:02:45;;;;;;;22.07;11.93;;;5.80;99.10;;;;;;5111141;28;20643;-64
2024/03/10 07:05:12;;;;;;;16.53;9.63;;;5.90;98.90;;;;;;5111486;28;20674;-62
2024/03/10 07:07:39;;;;;;;13.23;7.97;;;5.90;98.80;;;;;;5106312;28;20238;-63
2024/03/10 07:10:09;;;;;;;19.70;10.80;;;6.00;98.80;;;;;;5110869;28;20236;-62
2024/03/10 07:12:38;;;;;;;23.20;12.70;;;6.00;98.60;;;;;;5106863;28;20745;-63
2024/03/10 07:15:07;;;;;;;22.13;11.27;;;6.10;98.20;;;;;;5111250;28;20613;-62
2024/03/10 07:17:34;;;;;;;22.80;11.63;;;6.20;98.20;;;;;;5110400;28;20672;-63
2024/03/10 07:20:03;;;;;;;16.47;10.17;;;6.20;97.90;;;;;;5103704;28;20200;-63
2024/03/10 07:22:30;;;;;;;18.20;9.73;;;6.30;97.60;;;;;;5110390;28;20197;-64
2024/03/10 07:24:57;;;;;;;16.27;9.23;;;6.20;97.50;;;;;;5111363;28;20285;-62
2024/03/10 07:27:24;;;;;;;17.57;10.83;;;6.20;97.50;;;;;;5102841;28;20241;-62
2024/03/10 07:29:53;;;;;;;20.73;11.83;;;6.30;97.30;;;;;;5103850;28;20203;-62
2024/03/10 07:32:20;;;;;;;18.30;11.03;;;6.40;96.90;;;;;;5110070;28;20203;-63
2024/03/10 07:34:48;;;;;;;21.53;11.73;;;6.40;96.70;;;;;;5099496;28;20216;-63
2024/03/10 07:37:15;;;;;;;24.37;12.40;;;6.50;96.30;;;;;;5108961;28;20624;-63
2024/03/10 07:39:42;;;;;;;23.17;12.73;;;6.50;96.30;;;;;;5126126;27;20583;-63
2024/03/10 07:42:10;;;;;;;23.87;12.17;;;6.50;96.30;;;;;;5110495;28;20212;-61
2024/03/10 07:44:37;;;;;;;23.80;12.60;;;6.50;96.00;;;;;;5110900;28;20252;-62
2024/03/10 07:47:05;;;;;;;21.80;12.03;;;6.50;95.90;;;;;;5109053;28;20278;-62
2024/03/10 07:49:32;;;;;;;24.77;12.27;;;6.50;95.60;;;;;;5110036;28;20515;-62
2024/03/10 07:51:59;;;;;;;24.10;11.93;;;6.50;95.50;;;;;;5105899;28;20279;-62
2024/03/10 07:54:26;;;;;;;21.73;11.00;;;6.60;95.40;;;;;;5105616;28;20307;-62
2024/03/10 07:56:54;;;;;;;13.53;8.93;;;6.60;95.40;;;;;;5106451;28;20201;-62
2024/03/10 07:59:21;;;;;;;16.90;10.20;;;6.70;95.70;;;;;;5108012;28;20547;-62
2024/03/10 08:01:49;;;;;;;18.53;10.07;;;7.10;95.70;;;;;;5110433;28;20194;-62
2024/03/10 08:04:18;;;;;;;17.10;8.80;;;7.80;95.00;;;;;;5108061;28;20283;-62
2024/03/10 08:06:45;;;;;;;19.80;10.97;;;8.70;94.20;;;;;;5110050;28;20222;-64
2024/03/10 08:09:15;;;;;;;19.53;11.20;;;9.60;92.60;;;;;;5101266;28;20658;-62
2024/03/10 08:11:42;;;;;;;19.83;11.23;;;10.50;90.70;;;;;;5110917;28;20222;-61
2024/03/10 08:14:10;;;;;;;13.07;7.93;;;11.10;87.50;;;;;;5100805;28;20216;-62
2024/03/10 08:16:37;;;;;;;12.57;7.97;;;11.50;86.80;;;;;;5107453;28;20199;-62
2024/03/10 08:19:05;;;;;;;17.07;10.30;;;11.80;86.20;;;;;;5109898;28;20667;-63
2024/03/10 08:21:33;;;;;;;18.57;9.97;;;11.90;83.20;;;;;;5091071;28;20199;-63
2024/03/10 08:24:00;;;;;;;12.13;8.27;;;11.90;81.80;;;;;;5108621;28;20221;-63
2024/03/10 08:26:27;;;;;;;18.20;10.53;;;11.90;81.80;;;;;;5105934;28;20796;-63
2024/03/10 08:28:55;;;;;;;19.87;11.47;;;11.60;80.80;;;;;;5107597;28;20624;-63
2024/03/10 08:31:22;;;;;;;16.70;9.17;;;11.20;78.30;;;;;;5108939;28;20221;-62
2024/03/10 08:33:49;;;;;;;19.53;10.23;;;10.80;79.30;;;;;;5109661;28;20253;-62
2024/03/10 08:36:16;;;;;;;19.17;10.57;;;10.40;79.90;;;;;;5083584;28;20224;-62
2024/03/10 08:38:45;;;;;;;15.97;8.63;;;10.00;80.70;;;;;;5095369;28;20286;-61
2024/03/10 08:41:12;;;;;;;16.00;8.93;;;9.90;83.00;;;;;;5107150;28;20609;-62
2024/03/10 08:43:39;;;;;;;18.00;10.13;;;9.70;83.60;;;;;;5107924;28;20667;-62
2024/03/10 08:46:06;;;;;;;20.63;11.00;;;9.70;84.20;;;;;;5105341;28;20276;-62
2024/03/10 08:48:35;;;;;;;14.13;9.10;;;9.90;83.00;;;;;;5099247;28;20201;-62
2024/03/10 08:51:02;;;;;;;16.90;9.80;;;9.90;83.40;;;;;;5106935;28;20197;-62
2024/03/10 08:53:30;;;;;;;17.97;10.77;;;10.10;81.80;;;;;;5106933;28;20554;-61
2024/03/10 08:55:58;;;;;;;21.33;11.70;;;10.00;81.50;;;;;;5113358;28;20622;-63
2024/03/10 08:58:26;;;;;;;20.43;10.90;;;10.10;80.40;;;;;;5111070;28;20194;-62
2024/03/10 09:00:53;;;;;;;15.47;9.03;;;9.90;82.40;;;;;;5111785;28;20193;-63
2024/03/10 09:03:22;;;;;;;14.33;8.83;;;9.70;82.40;;;;;;5110622;28;20611;-62
2024/03/10 09:05:49;;;;;;;13.87;8.60;;;9.60;83.20;;;;;;5112366;28;20191;-62
2024/03/10 09:08:16;;;;;;;14.27;8.47;;;9.50;83.70;;;;;;5109765;28;20210;-62
2024/03/10 09:10:43;;;;;;;14.70;8.20;;;9.30;84.20;;;;;;5099806;28;20235;-62
2024/03/10 09:13:13;;;;;;;18.63;9.70;;;9.40;84.60;;;;;;5110391;28;20566;-61
2024/03/10 09:15:40;;;;;;;14.73;8.43;;;9.50;84.00;;;;;;5112024;28;21132;-62
2024/03/10 09:18:07;;;;;;;13.83;8.33;;;9.60;83.60;;;;;;5107653;27;20233;-63
2024/03/10 09:20:35;;;;;;;14.27;8.13;;;9.60;84.00;;;;;;5105405;28;20195;-62
2024/03/10 09:23:03;;;;;;;10.60;6.60;;;9.70;83.80;;;;;;5101310;28;20221;-62
2024/03/10 09:25:30;;;;;;;14.43;8.60;;;9.70;84.10;;;;;;5111922;28;20242;-62
2024/03/10 09:27:59;;;;;;;15.00;9.00;;;9.90;84.50;;;;;;5111859;28;20237;-62
2024/03/10 09:30:30;;;;;;;12.20;8.30;;;10.10;82.80;;;;;;5104361;27;20542;-62
2024/03/10 09:32:58;;;;;;;15.23;8.70;;;10.20;82.60;;;;;;5112081;27;20195;-62
2024/03/10 09:35:28;;;;;;;11.93;7.50;;;10.30;82.30;;;;;;5118503;27;20686;-62
2024/03/10 09:38:00;;;;;;;15.63;8.83;;;10.30;82.90;;;;;;5106118;28;20203;-62
2024/03/10 09:40:30;;;;;;;18.43;10.57;;;10.30;82.00;;;;;;5106435;28;20230;-63
2024/03/10 09:42:59;;;;;;;18.80;10.43;;;10.40;80.90;;;;;;5112816;27;20588;-63
2024/03/10 09:45:29;;;;;;;21.43;10.10;;;10.20;80.10;;;;;;5107567;27;20640;-61
2024/03/10 09:47:58;;;;;;;20.53;9.00;;;10.20;80.20;;;;;;5106658;28;20190;-63
2024/03/10 09:50:27;;;;;;;20.40;10.83;;;10.20;79.90;;;;;;5103458;28;20268;-61
2024/03/10 09:52:57;;;;;;;14.33;8.07;;;10.30;79.30;;;;;;5109689;27;20717;-62
2024/03/10 09:55:24;;;;;;;21.20;8.37;;;10.50;79.80;;;;;;5111931;27;20207;-64
2024/03/10 09:57:53;;;;;;;15.30;9.13;;;11.00;81.10;;;;;;5109465;28;20689;-63
2024/03/10 10:00:23;;;;;;;17.07;10.00;;;11.60;81.20;;;;;;5109308;28;20196;-62
2024/03/10 10:02:55;;;;;;;15.20;8.47;;;11.80;77.50;;;;;;5110833;28;20207;-61
2024/03/10 10:05:29;;;;;;;17.77;8.40;;;11.90;77.20;;;;;;5105315;27;20180;-62
2024/03/10 10:07:57;;;;;;;15.03;9.13;;;12.50;77.10;;;;;;5109657;27;20282;-62
2024/03/10 10:10:26;;;;;;;14.40;8.93;;;12.80;75.40;;;;;;5104751;28;20691;-62
2024/03/10 10:12:54;;;;;;;15.23;8.83;;;12.70;73.90;;;;;;5108235;28;20188;-62
2024/03/10 10:15:22;;;;;;;13.30;7.97;;;12.70;73.40;;;;;;5085950;28;20717;-63
2024/03/10 10:18:00;;;;;;;16.33;8.47;;;13.00;74.30;;;;;;5111570;28;20195;-63
2024/03/10 10:20:28;;;;;;;15.47;8.83;;;13.30;71.60;;;;;;5107667;28;20198;-63
2024/03/10 10:22:56;;;;;;;11.50;6.80;;;13.40;71.30;;;;;;5106055;28;20230;-63
2024/03/10 10:25:27;;;;;;;13.60;8.13;;;13.50;71.90;;;;;;5103034;27;20196;-62
2024/03/10 10:27:55;;;;;;;11.03;7.03;;;14.00;70.30;;;;;;5111933;28;20221;-63
2024/03/10 10:30:23;;;;;;;11.53;7.30;;;14.20;69.20;;;;;;5092262;28;20658;-63
2024/03/10 10:33:04;;;;;;;8.97;6.50;;;14.80;69.70;;;;;;5092850;28;20211;-63
2024/03/10 10:35:33;;;;;;;10.87;6.63;;;15.70;68.20;;;;;;5110502;28;20211;-62
2024/03/10 10:38:04;;;;;;;11.53;7.77;;;16.80;65.00;;;;;;5092542;28;20210;-63
2024/03/10 10:40:32;;;;;;;11.43;7.00;;;16.90;60.10;;;;;;5107955;28;20272;-63
2024/03/10 10:43:00;;;;;;;16.27;7.97;;;16.70;60.60;;;;;;5111332;28;20195;-62
2024/03/10 10:45:28;;;;;;;11.97;7.93;;;16.30;60.80;;;;;;5104236;28;20194;-63
2024/03/10 10:47:56;;;;;;;11.97;7.10;;;15.90;61.50;;;;;;5109814;28;20619;-62
2024/03/10 10:50:31;;;;;;;14.60;8.33;;;15.40;62.50;;;;;;5109500;28;20616;-63
2024/03/10 10:52:59;;;;;;;11.33;7.00;;;14.90;63.20;;;;;;5108063;28;20212;-62
2024/03/10 10:55:26;;;;;;;13.63;8.50;;;14.70;64.50;;;;;;5110434;28;20226;-62
2024/03/10 10:57:57;;;;;;;14.13;8.63;;;14.70;64.20;;;;;;5092826;28;20212;-62
2024/03/10 11:00:28;;;;;;;13.83;7.47;;;14.50;63.90;;;;;;5110422;28;20582;-62
2024/03/10 11:03:14;;;;;;;13.23;7.77;;;14.20;64.20;;;;;;5110950;28;20194;-63
2024/03/10 11:05:45;;;;;;;15.03;8.90;;;14.30;65.10;;;;;;5110904;28;20626;-62
2024/03/10 11:08:13;;;;;;;16.20;9.97;;;15.10;65.20;;;;;;5110282;28;20193;-62
2024/03/10 11:10:45;;;;;;;14.23;8.70;;;16.30;63.00;;;;;;5110800;28;20371;-62
2024/03/10 11:13:14;;;;;;;11.20;6.77;;;16.60;60.70;;;;;;5108796;28;20194;-62
2024/03/10 11:15:42;;;;;;;14.23;7.27;;;16.70;60.90;;;;;;5110018;28;20214;-63
2024/03/10 11:18:25;;;;;;;11.23;7.53;;;16.80;60.60;;;;;;5109693;28;20586;-63
2024/03/10 11:20:55;;;;;;;9.70;6.87;;;16.70;61.20;;;;;;5106036;28;20226;-63
2024/03/10 11:23:43;;;;;;;11.43;7.23;;;16.50;60.80;;;;;;5109328;28;20217;-62
2024/03/10 11:26:12;;;;;;;15.07;7.53;;;16.30;61.00;;;;;;5110585;28;20200;-63
2024/03/10 11:28:49;;;;;;;11.57;7.40;;;16.00;61.10;;;;;;5109902;28;20252;-61
2024/03/10 11:31:19;;;;;;;10.83;7.10;;;15.70;61.20;;;;;;5110214;28;20240;-63
2024/03/10 11:33:48;;;;;;;12.63;7.80;;;15.40;61.30;;;;;;5109574;28;20218;-62
2024/03/10 11:36:17;;;;;;;11.83;7.70;;;15.10;61.50;;;;;;5109747;28;20546;-62
2024/03/10 11:38:44;;;;;;;12.17;7.90;;;14.80;62.10;;;;;;5109445;28;20641;-63
2024/03/10 11:41:12;;;;;;;10.57;6.90;;;14.70;62.80;;;;;;5102193;28;20701;-63
2024/03/10 11:43:41;;;;;;;11.93;6.93;;;14.60;63.10;;;;;;5103866;28;20254;-64
2024/03/10 11:46:24;;;;;;;13.57;7.33;;;14.50;63.50;;;;;;5090562;28;20250;-63
2024/03/10 11:48:52;;;;;;;13.57;8.17;;;14.40;63.50;;;;;;5108584;28;20223;-63
2024/03/10 11:51:21;;;;;;;12.10;7.20;;;14.50;63.60;;;;;;5108346;28;20662;-63
2024/03/10 11:53:48;;;;;;;9.43;6.23;;;14.90;63.80;;;;;;5108539;28;20675;-63
2024/03/10 11:56:16;;;;;;;13.00;6.97;;;15.30;63.60;;;;;;5104850;28;20219;-63
2024/03/10 11:58:46;;;;;;;12.53;7.43;;;15.40;63.20;;;;;;5105526;28;20194;-64
2024/03/10 12:01:16;;;;;;;12.03;7.13;;;15.40;62.20;;;;;;5106291;28;20206;-63
2024/03/10 12:03:46;;;;;;;12.37;7.37;;;15.20;62.30;;;;;;5104925;28;20219;-62
2024/03/10 12:06:14;;;;;;;11.77;6.87;;;15.10;62.50;;;;;;5109825;28;20273;-63
2024/03/10 12:08:44;;;;;;;14.53;7.20;;;15.50;61.90;;;;;;5106695;28;20207;-63
2024/03/10 12:11:12;;;;;;;9.70;6.67;;;16.30;60.70;;;;;;5110301;28;20302;-63
2024/03/10 12:13:41;;;;;;;8.90;6.30;;;17.20;59.30;;;;;;5109289;28;20710;-62
2024/03/10 12:16:10;;;;;;;12.17;6.77;;;18.00;59.00;;;;;;5109067;28;20231;-62
2024/03/10 12:18:40;;;;;;;10.10;6.97;;;18.90;56.60;;;;;;5109072;28;20195;-63
2024/03/10 12:21:12;;;;;;;11.30;6.87;;;19.60;54.90;;;;;;5109142;28;20712;-62
2024/03/10 12:23:39;;;;;;;11.57;6.70;;;19.80;54.30;;;;;;5102560;28;20674;-62
2024/03/10 12:26:09;;;;;;;11.30;6.83;;;20.00;53.70;;;;;;5107157;28;20242;-62
2024/03/10 12:28:37;;;;;;;11.50;6.95;;;20.40;53.00;;;;;;5103536;28;20219;-62
2024/03/10 12:31:09;;;;;;;9.70;6.57;;;21.00;52.00;;;;;;5113487;28;20215;-62
2024/03/10 12:33:37;;;;;;;16.23;8.00;;;21.30;50.90;;;;;;5105431;28;20218;-62
2024/03/10 12:36:06;;;;;;;13.35;7.97;;;21.60;49.00;;;;;;5113570;28;20697;-63
2024/03/10 12:38:33;;;;;;;9.57;6.53;;;22.20;47.80;;;;;;5110759;28;20183;-62
2024/03/10 12:41:02;;;;;;;9.55;6.57;;;22.80;47.40;;;;;;5114483;28;20711;-62
2024/03/10 12:43:31;;;;;;;11.40;7.20;;;23.30;45.90;;;;;;5098576;28;20227;-62
2024/03/10 12:45:58;;;;;;;9.40;6.53;;;23.70;44.30;;;;;;5112802;28;20271;-62
2024/03/10 12:48:27;;;;;;;6.30;5.30;;;24.00;43.70;;;;;;5106549;28;20202;-64
2024/03/10 12:50:55;;;;;;;10.10;6.93;;;24.50;43.90;;;;;;5088876;28;20634;-62
2024/03/10 12:53:22;;;;;;;13.75;7.88;;;25.00;42.40;;;;;;5112009;28;20212;-63
2024/03/10 12:55:50;;;;;;;11.13;6.80;;;25.30;41.10;;;;;;5114080;28;20212;-62
2024/03/10 12:58:17;;;;;;;10.30;6.57;;;25.20;40.80;;;;;;5092017;28;20208;-63
2024/03/10 13:00:45;;;;;;;8.23;5.93;;;25.20;41.10;;;;;;5116836;27;20291;-62
2024/03/10 13:03:12;;;;;;;10.52;6.60;;;25.00;40.70;;;;;;5111464;28;20188;-62
2024/03/10 13:05:39;;;;;;;7.22;5.72;;;25.00;40.20;;;;;;5112408;28;20191;-62
2024/03/10 13:08:09;;;;;;;8.52;6.25;;;25.00;39.80;;;;;;5094095;28;20658;-62
2024/03/10 13:10:36;;;;;;;9.68;6.15;;;25.10;39.70;;;;;;5113372;28;20236;-63
2024/03/10 13:13:07;;;;;;;11.02;6.90;;;25.10;39.00;;;;;;5100239;28;20692;-63